sensor_id;sensor_type;location;lat;lon;timestamp;P1;durP1;ratioP1;P2;durP2;ratioP2
16393;SDS011;8306;51.128;4.476;2022-11-11T00:02:14;8.23;;;7.43;;
16393;SDS011;8306;51.128;4.476;2022-11-11T00:04:40;7.63;;;6.83;;
16393;SDS011;8306;51.128;4.476;2022-11-11T00:07:07;7.90;;;7.20;;
16393;SDS011;8306;51.128;4.476;2022-11-11T00:09:33;8.43;;;7.73;;
16393;SDS011;8306;51.128;4.476;2022-11-11T00:12:00;7.13;;;6.53;;
16393;SDS011;8306;51.128;4.476;2022-11-11T00:14:26;8.10;;;7.33;;
16393;SDS011;8306;51.128;4.476;2022-11-11T00:16:52;7.83;;;6.97;;
16393;SDS011;8306;51.128;4.476;2022-11-11T00:19:37;8.13;;;7.47;;
16393;SDS011;8306;51.128;4.476;2022-11-11T00:22:22;8.17;;;7.37;;
16393;SDS011;8306;51.128;4.476;2022-11-11T00:25:03;7.97;;;7.27;;
16393;SDS011;8306;51.128;4.476;2022-11-11T00:27:33;7.33;;;6.67;;
16393;SDS011;8306;51.128;4.476;2022-11-11T00:29:59;8.13;;;7.43;;
16393;SDS011;8306;51.128;4.476;2022-11-11T00:32:25;7.67;;;6.97;;
16393;SDS011;8306;51.128;4.476;2022-11-11T00:34:52;8.50;;;7.80;;
16393;SDS011;8306;51.128;4.476;2022-11-11T00:37:36;7.33;;;6.83;;
16393;SDS011;8306;51.128;4.476;2022-11-11T00:40:03;7.00;;;6.40;;
16393;SDS011;8306;51.128;4.476;2022-11-11T00:42:29;8.37;;;7.20;;
16393;SDS011;8306;51.128;4.476;2022-11-11T00:44:56;8.00;;;7.20;;
16393;SDS011;8306;51.128;4.476;2022-11-11T00:47:22;7.97;;;6.80;;
16393;SDS011;8306;51.128;4.476;2022-11-11T00:50:10;7.80;;;7.00;;
16393;SDS011;8306;51.128;4.476;2022-11-11T00:52:57;7.30;;;6.70;;
16393;SDS011;8306;51.128;4.476;2022-11-11T00:55:23;9.80;;;7.10;;
16393;SDS011;8306;51.128;4.476;2022-11-11T00:57:50;8.40;;;7.13;;
16393;SDS011;8306;51.128;4.476;2022-11-11T01:00:16;7.83;;;7.13;;
16393;SDS011;8306;51.128;4.476;2022-11-11T01:02:43;7.17;;;6.47;;
16393;SDS011;8306;51.128;4.476;2022-11-11T01:05:09;7.97;;;6.67;;
16393;SDS011;8306;51.128;4.476;2022-11-11T01:07:36;6.97;;;6.37;;
16393;SDS011;8306;51.128;4.476;2022-11-11T01:10:02;8.60;;;7.03;;
16393;SDS011;8306;51.128;4.476;2022-11-11T01:12:29;6.50;;;5.97;;
16393;SDS011;8306;51.128;4.476;2022-11-11T01:14:55;7.37;;;6.67;;
16393;SDS011;8306;51.128;4.476;2022-11-11T01:17:22;7.67;;;6.57;;
16393;SDS011;8306;51.128;4.476;2022-11-11T01:19:48;7.00;;;6.40;;
16393;SDS011;8306;51.128;4.476;2022-11-11T01:22:15;7.13;;;6.57;;
16393;SDS011;8306;51.128;4.476;2022-11-11T01:24:41;6.87;;;6.27;;
16393;SDS011;8306;51.128;4.476;2022-11-11T01:27:08;7.30;;;6.60;;
16393;SDS011;8306;51.128;4.476;2022-11-11T01:29:34;7.00;;;6.40;;
16393;SDS011;8306;51.128;4.476;2022-11-11T01:32:01;6.33;;;5.83;;
16393;SDS011;8306;51.128;4.476;2022-11-11T01:34:27;6.70;;;6.10;;
16393;SDS011;8306;51.128;4.476;2022-11-11T01:36:54;6.97;;;6.30;;
16393;SDS011;8306;51.128;4.476;2022-11-11T01:39:20;7.27;;;6.60;;
16393;SDS011;8306;51.128;4.476;2022-11-11T01:41:47;7.77;;;6.97;;
16393;SDS011;8306;51.128;4.476;2022-11-11T01:46:43;6.67;;;6.07;;
16393;SDS011;8306;51.128;4.476;2022-11-11T01:54:15;6.80;;;6.20;;
16393;SDS011;8306;51.128;4.476;2022-11-11T01:56:40;7.00;;;6.40;;
16393;SDS011;8306;51.128;4.476;2022-11-11T01:59:07;6.60;;;6.00;;
16393;SDS011;8306;51.128;4.476;2022-11-11T02:01:33;6.87;;;6.27;;
16393;SDS011;8306;51.128;4.476;2022-11-11T02:03:59;7.10;;;6.40;;
16393;SDS011;8306;51.128;4.476;2022-11-11T02:06:43;8.07;;;6.90;;
16393;SDS011;8306;51.128;4.476;2022-11-11T02:09:10;8.43;;;7.40;;
16393;SDS011;8306;51.128;4.476;2022-11-11T02:11:36;7.07;;;6.47;;
16393;SDS011;8306;51.128;4.476;2022-11-11T02:14:21;7.00;;;6.50;;
16393;SDS011;8306;51.128;4.476;2022-11-11T02:17:03;8.00;;;6.70;;
16393;SDS011;8306;51.128;4.476;2022-11-11T02:19:38;7.37;;;6.77;;
16393;SDS011;8306;51.128;4.476;2022-11-11T02:22:07;8.30;;;7.53;;
16393;SDS011;8306;51.128;4.476;2022-11-11T02:24:33;8.33;;;7.50;;
16393;SDS011;8306;51.128;4.476;2022-11-11T02:27:00;7.93;;;7.20;;
16393;SDS011;8306;51.128;4.476;2022-11-11T02:29:26;8.10;;;7.40;;
16393;SDS011;8306;51.128;4.476;2022-11-11T02:31:53;8.30;;;7.60;;
16393;SDS011;8306;51.128;4.476;2022-11-11T02:34:19;7.90;;;7.20;;
16393;SDS011;8306;51.128;4.476;2022-11-11T02:36:46;7.60;;;6.93;;
16393;SDS011;8306;51.128;4.476;2022-11-11T02:39:12;7.37;;;6.77;;
16393;SDS011;8306;51.128;4.476;2022-11-11T02:41:42;7.80;;;7.17;;
16393;SDS011;8306;51.128;4.476;2022-11-11T02:44:23;8.23;;;7.43;;
16393;SDS011;8306;51.128;4.476;2022-11-11T02:46:49;7.77;;;7.07;;
16393;SDS011;8306;51.128;4.476;2022-11-11T02:49:16;8.20;;;6.90;;
16393;SDS011;8306;51.128;4.476;2022-11-11T02:51:42;7.23;;;6.63;;
16393;SDS011;8306;51.128;4.476;2022-11-11T02:54:09;7.87;;;7.07;;
16393;SDS011;8306;51.128;4.476;2022-11-11T02:56:35;8.10;;;7.40;;
16393;SDS011;8306;51.128;4.476;2022-11-11T02:59:20;7.07;;;6.27;;
16393;SDS011;8306;51.128;4.476;2022-11-11T03:01:46;7.73;;;6.93;;
16393;SDS011;8306;51.128;4.476;2022-11-11T03:04:13;7.30;;;6.60;;
16393;SDS011;8306;51.128;4.476;2022-11-11T03:06:39;6.67;;;6.17;;
16393;SDS011;8306;51.128;4.476;2022-11-11T03:09:06;7.73;;;6.67;;
16393;SDS011;8306;51.128;4.476;2022-11-11T03:11:32;7.27;;;6.67;;
16393;SDS011;8306;51.128;4.476;2022-11-11T03:13:59;7.07;;;6.20;;
16393;SDS011;8306;51.128;4.476;2022-11-11T03:16:25;6.97;;;5.90;;
16393;SDS011;8306;51.128;4.476;2022-11-11T03:18:52;7.37;;;6.10;;
16393;SDS011;8306;51.128;4.476;2022-11-11T03:21:18;7.27;;;6.53;;
16393;SDS011;8306;51.128;4.476;2022-11-11T03:23:44;6.63;;;6.03;;
16393;SDS011;8306;51.128;4.476;2022-11-11T03:26:11;7.27;;;5.93;;
16393;SDS011;8306;51.128;4.476;2022-11-11T03:28:37;6.23;;;5.63;;
16393;SDS011;8306;51.128;4.476;2022-11-11T03:31:04;6.43;;;5.93;;
16393;SDS011;8306;51.128;4.476;2022-11-11T03:33:30;6.40;;;5.80;;
16393;SDS011;8306;51.128;4.476;2022-11-11T03:35:57;6.73;;;5.53;;
16393;SDS011;8306;51.128;4.476;2022-11-11T03:38:26;6.37;;;5.83;;
16393;SDS011;8306;51.128;4.476;2022-11-11T03:40:53;5.87;;;5.37;;
16393;SDS011;8306;51.128;4.476;2022-11-11T03:43:20;6.50;;;5.90;;
16393;SDS011;8306;51.128;4.476;2022-11-11T03:45:46;6.00;;;5.47;;
16393;SDS011;8306;51.128;4.476;2022-11-11T03:48:12;6.03;;;5.60;;
16393;SDS011;8306;51.128;4.476;2022-11-11T03:50:39;7.33;;;6.47;;
16393;SDS011;8306;51.128;4.476;2022-11-11T03:53:06;6.40;;;5.80;;
16393;SDS011;8306;51.128;4.476;2022-11-11T03:55:32;6.23;;;5.60;;
16393;SDS011;8306;51.128;4.476;2022-11-11T03:57:58;6.80;;;6.10;;
16393;SDS011;8306;51.128;4.476;2022-11-11T04:00:25;6.73;;;6.07;;
16393;SDS011;8306;51.128;4.476;2022-11-11T04:02:51;6.73;;;6.10;;
16393;SDS011;8306;51.128;4.476;2022-11-11T04:05:35;6.80;;;6.13;;
16393;SDS011;8306;51.128;4.476;2022-11-11T04:08:20;8.57;;;7.27;;
16393;SDS011;8306;51.128;4.476;2022-11-11T04:11:08;6.50;;;5.90;;
16393;SDS011;8306;51.128;4.476;2022-11-11T04:13:34;8.20;;;7.40;;
16393;SDS011;8306;51.128;4.476;2022-11-11T04:16:18;8.17;;;6.67;;
16393;SDS011;8306;51.128;4.476;2022-11-11T04:18:45;8.60;;;7.90;;
16393;SDS011;8306;51.128;4.476;2022-11-11T04:21:29;9.70;;;8.90;;
16393;SDS011;8306;51.128;4.476;2022-11-11T04:24:12;11.87;;;10.87;;
16393;SDS011;8306;51.128;4.476;2022-11-11T04:26:53;11.93;;;11.03;;
16393;SDS011;8306;51.128;4.476;2022-11-11T04:29:19;12.17;;;11.10;;
16393;SDS011;8306;51.128;4.476;2022-11-11T04:31:55;12.00;;;11.10;;
16393;SDS011;8306;51.128;4.476;2022-11-11T04:34:40;12.17;;;11.17;;
16393;SDS011;8306;51.128;4.476;2022-11-11T04:37:06;12.87;;;11.90;;
16393;SDS011;8306;51.128;4.476;2022-11-11T04:39:32;12.33;;;11.43;;
16393;SDS011;8306;51.128;4.476;2022-11-11T04:42:17;13.80;;;12.70;;
16393;SDS011;8306;51.128;4.476;2022-11-11T04:44:43;14.43;;;13.33;;
16393;SDS011;8306;51.128;4.476;2022-11-11T04:47:28;14.83;;;13.57;;
16393;SDS011;8306;51.128;4.476;2022-11-11T04:49:55;13.63;;;12.63;;
16393;SDS011;8306;51.128;4.476;2022-11-11T04:52:21;15.03;;;13.67;;
16393;SDS011;8306;51.128;4.476;2022-11-11T04:54:54;13.47;;;12.37;;
16393;SDS011;8306;51.128;4.476;2022-11-11T04:57:41;11.87;;;11.00;;
16393;SDS011;8306;51.128;4.476;2022-11-11T05:00:04;14.00;;;13.00;;
16393;SDS011;8306;51.128;4.476;2022-11-11T05:02:30;15.10;;;13.80;;
16393;SDS011;8306;51.128;4.476;2022-11-11T05:05:15;16.27;;;14.73;;
16393;SDS011;8306;51.128;4.476;2022-11-11T05:07:41;16.40;;;15.07;;
16393;SDS011;8306;51.128;4.476;2022-11-11T05:10:26;17.53;;;16.13;;
16393;SDS011;8306;51.128;4.476;2022-11-11T05:12:52;15.57;;;14.37;;
16393;SDS011;8306;51.128;4.476;2022-11-11T05:15:19;17.63;;;16.33;;
16393;SDS011;8306;51.128;4.476;2022-11-11T05:18:03;15.87;;;14.77;;
16393;SDS011;8306;51.128;4.476;2022-11-11T05:20:48;15.20;;;14.00;;
16393;SDS011;8306;51.128;4.476;2022-11-11T05:23:32;14.43;;;13.23;;
16393;SDS011;8306;51.128;4.476;2022-11-11T05:26:17;15.10;;;13.80;;
16393;SDS011;8306;51.128;4.476;2022-11-11T05:28:44;14.80;;;13.50;;
16393;SDS011;8306;51.128;4.476;2022-11-11T05:31:10;14.83;;;13.53;;
16393;SDS011;8306;51.128;4.476;2022-11-11T05:33:37;15.37;;;14.07;;
16393;SDS011;8306;51.128;4.476;2022-11-11T05:36:03;14.50;;;13.37;;
16393;SDS011;8306;51.128;4.476;2022-11-11T05:38:30;14.43;;;13.33;;
16393;SDS011;8306;51.128;4.476;2022-11-11T05:40:56;14.40;;;12.90;;
16393;SDS011;8306;51.128;4.476;2022-11-11T05:43:23;13.13;;;12.03;;
16393;SDS011;8306;51.128;4.476;2022-11-11T05:45:49;13.47;;;12.27;;
16393;SDS011;8306;51.128;4.476;2022-11-11T05:48:15;14.90;;;13.40;;
16393;SDS011;8306;51.128;4.476;2022-11-11T05:50:42;13.20;;;12.17;;
16393;SDS011;8306;51.128;4.476;2022-11-11T05:53:08;15.70;;;14.23;;
16393;SDS011;8306;51.128;4.476;2022-11-11T05:55:35;14.27;;;13.17;;
16393;SDS011;8306;51.128;4.476;2022-11-11T05:58:01;15.00;;;13.57;;
16393;SDS011;8306;51.128;4.476;2022-11-11T06:00:28;14.97;;;13.47;;
16393;SDS011;8306;51.128;4.476;2022-11-11T06:03:00;15.67;;;14.57;;
16393;SDS011;8306;51.128;4.476;2022-11-11T06:05:21;16.20;;;14.97;;
16393;SDS011;8306;51.128;4.476;2022-11-11T06:07:47;17.23;;;16.00;;
16393;SDS011;8306;51.128;4.476;2022-11-11T06:10:14;16.13;;;14.90;;
16393;SDS011;8306;51.128;4.476;2022-11-11T06:12:58;15.20;;;13.93;;
16393;SDS011;8306;51.128;4.476;2022-11-11T06:15:27;14.93;;;13.83;;
16393;SDS011;8306;51.128;4.476;2022-11-11T06:17:54;16.03;;;14.67;;
16393;SDS011;8306;51.128;4.476;2022-11-11T06:20:20;15.33;;;14.07;;
16393;SDS011;8306;51.128;4.476;2022-11-11T06:22:47;15.63;;;14.10;;
16393;SDS011;8306;51.128;4.476;2022-11-11T06:25:25;13.00;;;11.97;;
16393;SDS011;8306;51.128;4.476;2022-11-11T06:28:09;12.47;;;11.47;;
16393;SDS011;8306;51.128;4.476;2022-11-11T06:30:35;11.60;;;10.60;;
16393;SDS011;8306;51.128;4.476;2022-11-11T06:33:02;11.77;;;10.80;;
16393;SDS011;8306;51.128;4.476;2022-11-11T06:35:28;10.97;;;10.03;;
16393;SDS011;8306;51.128;4.476;2022-11-11T06:37:55;11.30;;;10.40;;
16393;SDS011;8306;51.128;4.476;2022-11-11T06:40:21;12.53;;;11.27;;
16393;SDS011;8306;51.128;4.476;2022-11-11T06:42:48;11.93;;;10.83;;
16393;SDS011;8306;51.128;4.476;2022-11-11T06:45:14;11.90;;;11.00;;
16393;SDS011;8306;51.128;4.476;2022-11-11T06:47:41;10.57;;;9.77;;
16393;SDS011;8306;51.128;4.476;2022-11-11T06:50:07;11.20;;;10.20;;
16393;SDS011;8306;51.128;4.476;2022-11-11T06:52:34;10.00;;;9.20;;
16393;SDS011;8306;51.128;4.476;2022-11-11T06:55:00;9.50;;;8.70;;
16393;SDS011;8306;51.128;4.476;2022-11-11T06:57:27;8.80;;;8.10;;
16393;SDS011;8306;51.128;4.476;2022-11-11T06:59:53;9.47;;;8.57;;
16393;SDS011;8306;51.128;4.476;2022-11-11T07:02:20;9.80;;;8.97;;
16393;SDS011;8306;51.128;4.476;2022-11-11T07:04:46;8.53;;;7.83;;
16393;SDS011;8306;51.128;4.476;2022-11-11T07:07:13;9.10;;;8.40;;
16393;SDS011;8306;51.128;4.476;2022-11-11T07:09:43;8.37;;;7.67;;
16393;SDS011;8306;51.128;4.476;2022-11-11T07:12:06;8.10;;;7.40;;
16393;SDS011;8306;51.128;4.476;2022-11-11T07:14:32;8.57;;;7.87;;
16393;SDS011;8306;51.128;4.476;2022-11-11T07:16:59;8.40;;;7.67;;
16393;SDS011;8306;51.128;4.476;2022-11-11T07:19:25;8.50;;;7.90;;
16393;SDS011;8306;51.128;4.476;2022-11-11T07:21:52;8.13;;;7.43;;
16393;SDS011;8306;51.128;4.476;2022-11-11T07:24:18;8.67;;;8.07;;
16393;SDS011;8306;51.128;4.476;2022-11-11T07:26:47;7.97;;;7.33;;
16393;SDS011;8306;51.128;4.476;2022-11-11T07:29:11;7.67;;;7.07;;
16393;SDS011;8306;51.128;4.476;2022-11-11T07:31:38;7.60;;;7.00;;
16393;SDS011;8306;51.128;4.476;2022-11-11T07:34:04;7.60;;;7.00;;
16393;SDS011;8306;51.128;4.476;2022-11-11T07:36:30;7.17;;;6.57;;
16393;SDS011;8306;51.128;4.476;2022-11-11T07:38:57;7.07;;;6.57;;
16393;SDS011;8306;51.128;4.476;2022-11-11T07:41:23;7.50;;;6.90;;
16393;SDS011;8306;51.128;4.476;2022-11-11T07:43:50;6.83;;;6.23;;
16393;SDS011;8306;51.128;4.476;2022-11-11T07:46:17;8.13;;;5.90;;
16393;SDS011;8306;51.128;4.476;2022-11-11T07:48:43;7.73;;;6.00;;
16393;SDS011;8306;51.128;4.476;2022-11-11T07:51:09;7.43;;;6.83;;
16393;SDS011;8306;51.128;4.476;2022-11-11T07:53:36;7.83;;;7.13;;
16393;SDS011;8306;51.128;4.476;2022-11-11T07:56:02;8.03;;;7.23;;
16393;SDS011;8306;51.128;4.476;2022-11-11T07:58:29;9.63;;;8.90;;
16393;SDS011;8306;51.128;4.476;2022-11-11T08:00:58;9.30;;;8.70;;
16393;SDS011;8306;51.128;4.476;2022-11-11T08:03:22;12.97;;;10.80;;
16393;SDS011;8306;51.128;4.476;2022-11-11T08:05:48;12.10;;;11.10;;
16393;SDS011;8306;51.128;4.476;2022-11-11T08:08:15;12.07;;;11.07;;
16393;SDS011;8306;51.128;4.476;2022-11-11T08:10:41;12.27;;;11.27;;
16393;SDS011;8306;51.128;4.476;2022-11-11T08:13:10;12.10;;;11.20;;
16393;SDS011;8306;51.128;4.476;2022-11-11T08:15:54;13.77;;;12.77;;
16393;SDS011;8306;51.128;4.476;2022-11-11T08:18:19;11.90;;;11.07;;
16393;SDS011;8306;51.128;4.476;2022-11-11T08:20:45;12.83;;;11.73;;
16393;SDS011;8306;51.128;4.476;2022-11-11T08:23:12;13.20;;;12.07;;
16393;SDS011;8306;51.128;4.476;2022-11-11T08:25:38;12.37;;;11.37;;
16393;SDS011;8306;51.128;4.476;2022-11-11T08:28:05;11.17;;;10.37;;
16393;SDS011;8306;51.128;4.476;2022-11-11T08:30:31;12.03;;;11.03;;
16393;SDS011;8306;51.128;4.476;2022-11-11T08:32:58;11.17;;;10.30;;
16393;SDS011;8306;51.128;4.476;2022-11-11T08:35:24;11.80;;;10.80;;
16393;SDS011;8306;51.128;4.476;2022-11-11T08:37:50;10.57;;;9.87;;
16393;SDS011;8306;51.128;4.476;2022-11-11T08:40:17;10.93;;;10.13;;
16393;SDS011;8306;51.128;4.476;2022-11-11T08:42:44;11.13;;;10.23;;
16393;SDS011;8306;51.128;4.476;2022-11-11T08:45:10;11.87;;;10.87;;
16393;SDS011;8306;51.128;4.476;2022-11-11T08:47:37;12.10;;;10.97;;
16393;SDS011;8306;51.128;4.476;2022-11-11T08:50:04;11.40;;;10.60;;
16393;SDS011;8306;51.128;4.476;2022-11-11T08:52:29;10.97;;;9.97;;
16393;SDS011;8306;51.128;4.476;2022-11-11T08:54:56;8.83;;;8.13;;
16393;SDS011;8306;51.128;4.476;2022-11-11T08:57:22;9.03;;;8.30;;
16393;SDS011;8306;51.128;4.476;2022-11-11T08:59:49;8.47;;;7.87;;
16393;SDS011;8306;51.128;4.476;2022-11-11T09:02:15;8.03;;;7.43;;
16393;SDS011;8306;51.128;4.476;2022-11-11T09:04:42;7.87;;;7.13;;
16393;SDS011;8306;51.128;4.476;2022-11-11T09:07:09;8.00;;;7.20;;
16393;SDS011;8306;51.128;4.476;2022-11-11T09:09:35;8.77;;;8.07;;
16393;SDS011;8306;51.128;4.476;2022-11-11T09:12:01;8.03;;;7.33;;
16393;SDS011;8306;51.128;4.476;2022-11-11T09:14:28;7.40;;;6.80;;
16393;SDS011;8306;51.128;4.476;2022-11-11T09:16:54;7.27;;;6.73;;
16393;SDS011;8306;51.128;4.476;2022-11-11T09:19:21;7.37;;;6.63;;
16393;SDS011;8306;51.128;4.476;2022-11-11T09:21:49;7.87;;;7.07;;
16393;SDS011;8306;51.128;4.476;2022-11-11T09:24:14;7.43;;;6.80;;
16393;SDS011;8306;51.128;4.476;2022-11-11T09:26:40;7.20;;;6.60;;
16393;SDS011;8306;51.128;4.476;2022-11-11T09:29:07;6.97;;;6.37;;
16393;SDS011;8306;51.128;4.476;2022-11-11T09:31:33;7.13;;;6.63;;
16393;SDS011;8306;51.128;4.476;2022-11-11T09:34:00;7.10;;;6.50;;
16393;SDS011;8306;51.128;4.476;2022-11-11T09:36:26;7.50;;;6.90;;
16393;SDS011;8306;51.128;4.476;2022-11-11T09:38:53;7.43;;;6.90;;
16393;SDS011;8306;51.128;4.476;2022-11-11T09:45:05;7.53;;;7.00;;
16393;SDS011;8306;51.128;4.476;2022-11-11T09:46:53;8.40;;;7.60;;
16393;SDS011;8306;51.128;4.476;2022-11-11T09:54:42;8.57;;;7.90;;
16393;SDS011;8306;51.128;4.476;2022-11-11T09:56:46;8.43;;;7.83;;
16393;SDS011;8306;51.128;4.476;2022-11-11T09:59:20;7.83;;;7.23;;
16393;SDS011;8306;51.128;4.476;2022-11-11T10:01:56;8.47;;;7.77;;
16393;SDS011;8306;51.128;4.476;2022-11-11T10:06:56;7.83;;;7.23;;
16393;SDS011;8306;51.128;4.476;2022-11-11T10:12:02;6.60;;;6.17;;
16393;SDS011;8306;51.128;4.476;2022-11-11T10:14:31;6.40;;;5.97;;
16393;SDS011;8306;51.128;4.476;2022-11-11T10:16:57;6.33;;;5.83;;
16393;SDS011;8306;51.128;4.476;2022-11-11T10:19:27;6.37;;;5.87;;
16393;SDS011;8306;51.128;4.476;2022-11-11T10:22:01;5.93;;;5.53;;
16393;SDS011;8306;51.128;4.476;2022-11-11T10:24:31;6.20;;;5.70;;
16393;SDS011;8306;51.128;4.476;2022-11-11T10:26:53;5.87;;;5.37;;
16393;SDS011;8306;51.128;4.476;2022-11-11T10:29:21;5.30;;;4.90;;
16393;SDS011;8306;51.128;4.476;2022-11-11T10:31:54;5.07;;;4.67;;
16393;SDS011;8306;51.128;4.476;2022-11-11T10:34:13;4.57;;;4.17;;
16393;SDS011;8306;51.128;4.476;2022-11-11T10:36:44;4.67;;;4.27;;
16393;SDS011;8306;51.128;4.476;2022-11-11T10:39:09;4.63;;;4.33;;
16393;SDS011;8306;51.128;4.476;2022-11-11T10:41:56;4.53;;;4.23;;
16393;SDS011;8306;51.128;4.476;2022-11-11T10:44:20;4.03;;;3.73;;
16393;SDS011;8306;51.128;4.476;2022-11-11T10:46:51;4.77;;;4.37;;
16393;SDS011;8306;51.128;4.476;2022-11-11T10:49:16;4.40;;;4.00;;
16393;SDS011;8306;51.128;4.476;2022-11-11T10:51:47;4.13;;;3.83;;
16393;SDS011;8306;51.128;4.476;2022-11-11T10:54:12;3.90;;;3.60;;
16393;SDS011;8306;51.128;4.476;2022-11-11T10:59:23;4.43;;;4.07;;
16393;SDS011;8306;51.128;4.476;2022-11-11T11:02:00;3.50;;;3.20;;
16393;SDS011;8306;51.128;4.476;2022-11-11T11:04:49;3.53;;;3.23;;
16393;SDS011;8306;51.128;4.476;2022-11-11T11:07:12;3.03;;;2.73;;
16393;SDS011;8306;51.128;4.476;2022-11-11T11:09:39;3.80;;;3.40;;
16393;SDS011;8306;51.128;4.476;2022-11-11T11:14:36;3.33;;;2.80;;
16393;SDS011;8306;51.128;4.476;2022-11-11T11:17:11;3.17;;;2.70;;
16393;SDS011;8306;51.128;4.476;2022-11-11T11:19:41;2.90;;;2.70;;
16393;SDS011;8306;51.128;4.476;2022-11-11T11:22:07;2.83;;;2.63;;
16393;SDS011;8306;51.128;4.476;2022-11-11T11:24:34;2.43;;;2.23;;
16393;SDS011;8306;51.128;4.476;2022-11-11T11:27:04;2.90;;;2.47;;
16393;SDS011;8306;51.128;4.476;2022-11-11T11:29:33;2.90;;;2.57;;
16393;SDS011;8306;51.128;4.476;2022-11-11T11:32:11;3.07;;;2.70;;
16393;SDS011;8306;51.128;4.476;2022-11-11T11:34:55;2.77;;;2.50;;
16393;SDS011;8306;51.128;4.476;2022-11-11T11:37:11;2.43;;;2.23;;
16393;SDS011;8306;51.128;4.476;2022-11-11T11:39:38;3.30;;;2.37;;
16393;SDS011;8306;51.128;4.476;2022-11-11T11:42:04;2.93;;;2.40;;
16393;SDS011;8306;51.128;4.476;2022-11-11T11:44:31;2.63;;;2.43;;
16393;SDS011;8306;51.128;4.476;2022-11-11T11:50:03;2.63;;;2.40;;
16393;SDS011;8306;51.128;4.476;2022-11-11T11:52:52;2.70;;;2.47;;
16393;SDS011;8306;51.128;4.476;2022-11-11T11:55:34;3.37;;;2.47;;
16393;SDS011;8306;51.128;4.476;2022-11-11T11:58:10;3.57;;;2.00;;
16393;SDS011;8306;51.128;4.476;2022-11-11T12:00:53;2.40;;;2.20;;
16393;SDS011;8306;51.128;4.476;2022-11-11T12:03:24;2.20;;;2.00;;
16393;SDS011;8306;51.128;4.476;2022-11-11T12:05:47;3.57;;;2.20;;
16393;SDS011;8306;51.128;4.476;2022-11-11T12:13:40;1.73;;;1.63;;
16393;SDS011;8306;51.128;4.476;2022-11-11T12:16:18;2.47;;;1.97;;
16393;SDS011;8306;51.128;4.476;2022-11-11T12:21:16;2.23;;;2.03;;
16393;SDS011;8306;51.128;4.476;2022-11-11T12:29:13;2.10;;;1.90;;
16393;SDS011;8306;51.128;4.476;2022-11-11T12:45:18;2.40;;;1.60;;
16393;SDS011;8306;51.128;4.476;2022-11-11T12:47:57;2.63;;;1.63;;
16393;SDS011;8306;51.128;4.476;2022-11-11T12:55:57;2.20;;;1.70;;
16393;SDS011;8306;51.128;4.476;2022-11-11T12:58:27;1.50;;;1.40;;
16393;SDS011;8306;51.128;4.476;2022-11-11T13:03:51;1.80;;;1.60;;
16393;SDS011;8306;51.128;4.476;2022-11-11T13:06:38;1.67;;;1.50;;
16393;SDS011;8306;51.128;4.476;2022-11-11T13:09:24;1.43;;;1.20;;
16393;SDS011;8306;51.128;4.476;2022-11-11T13:12:02;2.57;;;1.60;;
16393;SDS011;8306;51.128;4.476;2022-11-11T13:17:29;1.60;;;1.43;;
16393;SDS011;8306;51.128;4.476;2022-11-11T13:19:56;1.83;;;1.43;;
16393;SDS011;8306;51.128;4.476;2022-11-11T13:22:28;1.90;;;1.40;;
16393;SDS011;8306;51.128;4.476;2022-11-11T13:24:54;2.20;;;1.40;;
16393;SDS011;8306;51.128;4.476;2022-11-11T13:33:51;1.73;;;1.30;;
16393;SDS011;8306;51.128;4.476;2022-11-11T13:35:47;1.13;;;1.03;;
16393;SDS011;8306;51.128;4.476;2022-11-11T13:38:25;1.67;;;1.27;;
16393;SDS011;8306;51.128;4.476;2022-11-11T13:41:02;1.23;;;1.13;;
16393;SDS011;8306;51.128;4.476;2022-11-11T13:43:32;2.00;;;1.50;;
16393;SDS011;8306;51.128;4.476;2022-11-11T13:46:00;1.50;;;1.23;;
16393;SDS011;8306;51.128;4.476;2022-11-11T13:48:27;1.30;;;1.20;;
16393;SDS011;8306;51.128;4.476;2022-11-11T13:53:53;1.90;;;1.50;;
16393;SDS011;8306;51.128;4.476;2022-11-11T13:58:48;1.67;;;1.23;;
16393;SDS011;8306;51.128;4.476;2022-11-11T14:01:15;1.30;;;1.20;;
16393;SDS011;8306;51.128;4.476;2022-11-11T14:13:51;1.37;;;1.20;;
16393;SDS011;8306;51.128;4.476;2022-11-11T14:21:52;2.07;;;1.47;;
16393;SDS011;8306;51.128;4.476;2022-11-11T14:24:21;2.33;;;1.60;;
16393;SDS011;8306;51.128;4.476;2022-11-11T14:26:57;1.40;;;1.30;;
16393;SDS011;8306;51.128;4.476;2022-11-11T14:29:23;1.83;;;1.67;;
16393;SDS011;8306;51.128;4.476;2022-11-11T14:31:59;2.33;;;2.13;;
16393;SDS011;8306;51.128;4.476;2022-11-11T14:37:15;2.80;;;2.53;;
16393;SDS011;8306;51.128;4.476;2022-11-11T14:39:49;2.50;;;2.30;;
16393;SDS011;8306;51.128;4.476;2022-11-11T14:45:02;2.30;;;2.10;;
16393;SDS011;8306;51.128;4.476;2022-11-11T14:47:34;2.30;;;2.10;;
16393;SDS011;8306;51.128;4.476;2022-11-11T14:50:07;2.60;;;2.40;;
16393;SDS011;8306;51.128;4.476;2022-11-11T14:52:42;2.90;;;2.07;;
16393;SDS011;8306;51.128;4.476;2022-11-11T14:55:18;2.53;;;2.13;;
16393;SDS011;8306;51.128;4.476;2022-11-11T14:57:59;2.10;;;1.90;;
16393;SDS011;8306;51.128;4.476;2022-11-11T15:00:47;3.10;;;2.40;;
16393;SDS011;8306;51.128;4.476;2022-11-11T15:03:14;2.60;;;2.27;;
16393;SDS011;8306;51.128;4.476;2022-11-11T15:05:52;2.40;;;2.20;;
16393;SDS011;8306;51.128;4.476;2022-11-11T15:11:31;3.20;;;2.13;;
16393;SDS011;8306;51.128;4.476;2022-11-11T15:22:30;2.13;;;2.03;;
16393;SDS011;8306;51.128;4.476;2022-11-11T15:24:56;3.27;;;2.47;;
16393;SDS011;8306;51.128;4.476;2022-11-11T15:31:16;5.97;;;5.47;;
16393;SDS011;8306;51.128;4.476;2022-11-11T15:36:17;6.77;;;5.67;;
16393;SDS011;8306;51.128;4.476;2022-11-11T15:38:41;21.80;;;14.50;;
16393;SDS011;8306;51.128;4.476;2022-11-11T15:41:19;36.87;;;20.00;;
16393;SDS011;8306;51.128;4.476;2022-11-11T15:43:34;32.40;;;18.27;;
16393;SDS011;8306;51.128;4.476;2022-11-11T15:46:01;32.03;;;18.67;;
16393;SDS011;8306;51.128;4.476;2022-11-11T15:48:29;26.30;;;17.30;;
16393;SDS011;8306;51.128;4.476;2022-11-11T15:50:54;13.67;;;11.30;;
16393;SDS011;8306;51.128;4.476;2022-11-11T15:53:21;8.07;;;6.83;;
16393;SDS011;8306;51.128;4.476;2022-11-11T15:55:56;7.97;;;5.30;;
16393;SDS011;8306;51.128;4.476;2022-11-11T15:58:26;11.83;;;9.20;;
16393;SDS011;8306;51.128;4.476;2022-11-11T16:00:54;8.33;;;7.13;;
16393;SDS011;8306;51.128;4.476;2022-11-11T16:03:30;6.13;;;5.53;;
16393;SDS011;8306;51.128;4.476;2022-11-11T16:05:56;6.70;;;6.03;;
16393;SDS011;8306;51.128;4.476;2022-11-11T16:08:23;11.20;;;7.27;;
16393;SDS011;8306;51.128;4.476;2022-11-11T16:10:53;6.30;;;5.70;;
16393;SDS011;8306;51.128;4.476;2022-11-11T16:13:36;6.63;;;5.50;;
16393;SDS011;8306;51.128;4.476;2022-11-11T16:16:04;6.63;;;5.43;;
16393;SDS011;8306;51.128;4.476;2022-11-11T16:18:36;5.53;;;5.00;;
16393;SDS011;8306;51.128;4.476;2022-11-11T16:21:12;5.97;;;5.33;;
16393;SDS011;8306;51.128;4.476;2022-11-11T16:23:46;5.60;;;5.10;;
16393;SDS011;8306;51.128;4.476;2022-11-11T16:26:12;7.87;;;6.60;;
16393;SDS011;8306;51.128;4.476;2022-11-11T16:28:41;8.00;;;6.70;;
16393;SDS011;8306;51.128;4.476;2022-11-11T16:34:00;6.63;;;5.90;;
16393;SDS011;8306;51.128;4.476;2022-11-11T16:36:26;6.00;;;5.50;;
16393;SDS011;8306;51.128;4.476;2022-11-11T16:38:52;5.67;;;5.17;;
16393;SDS011;8306;51.128;4.476;2022-11-11T16:41:29;5.57;;;5.07;;
16393;SDS011;8306;51.128;4.476;2022-11-11T16:43:54;5.23;;;4.83;;
16393;SDS011;8306;51.128;4.476;2022-11-11T16:46:42;4.77;;;4.37;;
16393;SDS011;8306;51.128;4.476;2022-11-11T16:49:12;4.90;;;4.33;;
16393;SDS011;8306;51.128;4.476;2022-11-11T16:51:44;6.13;;;4.23;;
16393;SDS011;8306;51.128;4.476;2022-11-11T16:54:16;5.43;;;4.93;;
16393;SDS011;8306;51.128;4.476;2022-11-11T16:56:45;7.00;;;6.30;;
16393;SDS011;8306;51.128;4.476;2022-11-11T16:59:14;9.97;;;7.27;;
16393;SDS011;8306;51.128;4.476;2022-11-11T17:01:41;9.10;;;8.20;;
16393;SDS011;8306;51.128;4.476;2022-11-11T17:04:07;7.80;;;7.10;;
16393;SDS011;8306;51.128;4.476;2022-11-11T17:07:19;7.60;;;6.90;;
16393;SDS011;8306;51.128;4.476;2022-11-11T17:09:28;9.13;;;8.43;;
16393;SDS011;8306;51.128;4.476;2022-11-11T17:11:53;8.90;;;8.10;;